Hauptseite
METAR-TAF:

METAR-TAF

Flughäfen :

Flughafen Graz

Graz, Österreich

Breite: 47-00N, Länge: 015-26E, Höhe: 340 m

Beobachtung

Neuester Wetterbericht von vor 24 Minuten, um 00:20 UTC
Wind 1 kt aus unterschiedlichen Richtungen
Temperatur 9°C
Luftfeuchtigkeit 71%
Luftdruck 1018 hPa
Sichtweite 10 km oder mehr
Durchbrochene Bewölkung in der Höhe von 7000 ft

METAR: LOWG 310020Z AUTO VRB01KT 9999 BKN070 09/04 Q1018

Zeit: 02:44 (00:44 UTC)

Prognose

Neuester Wetterbericht von vor 1 Stunde und 29 Minuten, um 23:15 UTC
Gültige Prognose vom 31 um 00 UTC bis 31 um 24 UTC
Wind 5 kt aus unterschiedlichen Richtungen
Sichtweite 10 km oder mehr
Leicht bewölkt in der Höhe von 6000 ft
Zeitweise
vom 31 um 09 UTC bis 31 um 20 UTC
Wind 12 kt aus Nordwest
Zeitweise
vom 31 um 12 UTC bis 31 um 21 UTC
Leichtregen

TAF: LOWG 302315Z 3100/3124 VRB05KT 9999 FEW060 TX16/3111Z TN07/3103Z TEMPO 3109/3120 32012KT TEMPO 3112/3121 -RA

Wetterbeobachtungen und Prognosen von mehr als 4000 Flughäfen (METAR und TAF Bericht).

Die verfügbaren Stationen werden durch gelbe und rote Markierungen auf der Karte dargestellt.

Führen Sie die Maus auf sie, um den Namen der Station zu sehen.

Darauf klicken, um die Beobachtung von Wetterbeobachtungen und Prognosen zu sehen.

Um die Karte zu ändern : klicken Sie auf den grünen Tasten mit einem schwarzen Kreuz Zum Vergrößern, auf den grünen Button mit einem Gedankenstrich zu verkleinern, oder auf die grünen Pfeile für benachbarte Karten.


METAR-TAF: